sensor_id;sensor_type;location;lat;lon;timestamp;P1;durP1;ratioP1;P2;durP2;ratioP2
5841;SDS011;2947;52.276;9.946;2022-09-02T00:00:59;2.92;;;0.90;;
5841;SDS011;2947;52.276;9.946;2022-09-02T00:03:35;2.45;;;1.30;;
5841;SDS011;2947;52.276;9.946;2022-09-02T00:06:01;2.35;;;0.98;;
5841;SDS011;2947;52.276;9.946;2022-09-02T00:08:28;3.22;;;0.95;;
5841;SDS011;2947;52.276;9.946;2022-09-02T00:10:58;6.03;;;1.25;;
5841;SDS011;2947;52.276;9.946;2022-09-02T00:13:27;2.40;;;1.10;;
5841;SDS011;2947;52.276;9.946;2022-09-02T00:15:54;2.00;;;0.70;;
5841;SDS011;2947;52.276;9.946;2022-09-02T00:18:20;2.28;;;1.08;;
5841;SDS011;2947;52.276;9.946;2022-09-02T00:20:47;4.25;;;1.15;;
5841;SDS011;2947;52.276;9.946;2022-09-02T00:23:14;3.33;;;2.03;;
5841;SDS011;2947;52.276;9.946;2022-09-02T00:25:40;2.20;;;0.90;;
5841;SDS011;2947;52.276;9.946;2022-09-02T00:28:08;2.60;;;0.85;;
5841;SDS011;2947;52.276;9.946;2022-09-02T00:30:35;2.17;;;0.90;;
5841;SDS011;2947;52.276;9.946;2022-09-02T00:33:02;2.05;;;0.93;;
5841;SDS011;2947;52.276;9.946;2022-09-02T00:35:28;5.40;;;0.90;;
5841;SDS011;2947;52.276;9.946;2022-09-02T00:37:54;2.83;;;0.90;;
5841;SDS011;2947;52.276;9.946;2022-09-02T00:40:21;2.58;;;1.00;;
5841;SDS011;2947;52.276;9.946;2022-09-02T00:42:47;2.30;;;0.80;;
5841;SDS011;2947;52.276;9.946;2022-09-02T00:45:15;2.25;;;1.15;;
5841;SDS011;2947;52.276;9.946;2022-09-02T00:47:42;5.95;;;0.93;;
5841;SDS011;2947;52.276;9.946;2022-09-02T00:50:10;2.25;;;0.90;;
5841;SDS011;2947;52.276;9.946;2022-09-02T00:52:43;2.65;;;1.05;;
5841;SDS011;2947;52.276;9.946;2022-09-02T00:55:16;5.60;;;1.25;;
5841;SDS011;2947;52.276;9.946;2022-09-02T00:57:47;5.25;;;1.02;;
5841;SDS011;2947;52.276;9.946;2022-09-02T01:00:22;2.75;;;1.25;;
5841;SDS011;2947;52.276;9.946;2022-09-02T01:02:56;1.85;;;0.88;;
5841;SDS011;2947;52.276;9.946;2022-09-02T01:05:26;3.20;;;1.38;;
5841;SDS011;2947;52.276;9.946;2022-09-02T01:07:55;3.65;;;1.30;;
5841;SDS011;2947;52.276;9.946;2022-09-02T01:10:24;2.50;;;1.13;;
5841;SDS011;2947;52.276;9.946;2022-09-02T01:12:59;2.53;;;1.27;;
5841;SDS011;2947;52.276;9.946;2022-09-02T01:15:34;10.90;;;1.10;;
5841;SDS011;2947;52.276;9.946;2022-09-02T01:18:07;2.65;;;0.98;;
5841;SDS011;2947;52.276;9.946;2022-09-02T01:20:37;3.58;;;1.10;;
5841;SDS011;2947;52.276;9.946;2022-09-02T01:23:03;3.85;;;1.30;;
5841;SDS011;2947;52.276;9.946;2022-09-02T01:25:30;16.50;;;1.23;;
5841;SDS011;2947;52.276;9.946;2022-09-02T01:27:59;2.70;;;1.00;;
5841;SDS011;2947;52.276;9.946;2022-09-02T01:30:30;2.67;;;1.20;;
5841;SDS011;2947;52.276;9.946;2022-09-02T01:32:57;10.77;;;1.20;;
5841;SDS011;2947;52.276;9.946;2022-09-02T01:35:22;1.77;;;0.80;;
5841;SDS011;2947;52.276;9.946;2022-09-02T01:37:48;2.40;;;1.10;;
5841;SDS011;2947;52.276;9.946;2022-09-02T01:40:19;2.22;;;0.90;;
5841;SDS011;2947;52.276;9.946;2022-09-02T01:42:45;2.45;;;1.17;;
5841;SDS011;2947;52.276;9.946;2022-09-02T01:45:12;3.65;;;0.93;;
5841;SDS011;2947;52.276;9.946;2022-09-02T01:47:39;2.45;;;1.20;;
5841;SDS011;2947;52.276;9.946;2022-09-02T01:50:06;2.85;;;1.35;;
5841;SDS011;2947;52.276;9.946;2022-09-02T01:52:33;2.38;;;1.17;;
5841;SDS011;2947;52.276;9.946;2022-09-02T01:55:00;3.60;;;0.95;;
5841;SDS011;2947;52.276;9.946;2022-09-02T01:57:25;2.92;;;1.10;;
5841;SDS011;2947;52.276;9.946;2022-09-02T01:59:53;5.60;;;1.00;;
5841;SDS011;2947;52.276;9.946;2022-09-02T02:02:19;1.70;;;0.70;;
5841;SDS011;2947;52.276;9.946;2022-09-02T02:04:46;2.95;;;1.08;;
5841;SDS011;2947;52.276;9.946;2022-09-02T02:07:13;3.20;;;1.35;;
5841;SDS011;2947;52.276;9.946;2022-09-02T02:09:44;4.55;;;1.27;;
5841;SDS011;2947;52.276;9.946;2022-09-02T02:12:10;1.90;;;0.93;;
5841;SDS011;2947;52.276;9.946;2022-09-02T02:14:36;6.97;;;1.10;;
5841;SDS011;2947;52.276;9.946;2022-09-02T02:17:02;9.27;;;2.25;;
5841;SDS011;2947;52.276;9.946;2022-09-02T02:19:28;5.50;;;1.02;;
5841;SDS011;2947;52.276;9.946;2022-09-02T02:21:54;2.00;;;1.00;;
5841;SDS011;2947;52.276;9.946;2022-09-02T02:24:20;3.97;;;1.00;;
5841;SDS011;2947;52.276;9.946;2022-09-02T02:26:46;2.03;;;1.00;;
5841;SDS011;2947;52.276;9.946;2022-09-02T02:29:12;2.10;;;0.90;;
5841;SDS011;2947;52.276;9.946;2022-09-02T02:31:38;2.63;;;1.20;;
5841;SDS011;2947;52.276;9.946;2022-09-02T02:34:05;2.25;;;1.35;;
5841;SDS011;2947;52.276;9.946;2022-09-02T02:36:30;7.22;;;1.13;;
5841;SDS011;2947;52.276;9.946;2022-09-02T02:38:56;1.98;;;1.00;;
5841;SDS011;2947;52.276;9.946;2022-09-02T02:41:25;1.80;;;0.90;;
5841;SDS011;2947;52.276;9.946;2022-09-02T02:43:53;3.15;;;1.15;;
5841;SDS011;2947;52.276;9.946;2022-09-02T02:46:19;2.33;;;1.00;;
5841;SDS011;2947;52.276;9.946;2022-09-02T02:48:45;2.03;;;1.17;;
5841;SDS011;2947;52.276;9.946;2022-09-02T02:51:11;2.45;;;1.35;;
5841;SDS011;2947;52.276;9.946;2022-09-02T02:53:37;3.05;;;1.27;;
5841;SDS011;2947;52.276;9.946;2022-09-02T02:56:03;2.55;;;1.30;;
5841;SDS011;2947;52.276;9.946;2022-09-02T02:58:30;2.20;;;1.20;;
5841;SDS011;2947;52.276;9.946;2022-09-02T03:00:56;2.83;;;1.30;;
5841;SDS011;2947;52.276;9.946;2022-09-02T03:03:22;5.13;;;0.90;;
5841;SDS011;2947;52.276;9.946;2022-09-02T03:05:48;2.67;;;1.10;;
5841;SDS011;2947;52.276;9.946;2022-09-02T03:08:15;4.55;;;1.70;;
5841;SDS011;2947;52.276;9.946;2022-09-02T03:10:45;2.95;;;1.17;;
5841;SDS011;2947;52.276;9.946;2022-09-02T03:13:17;5.65;;;1.40;;
5841;SDS011;2947;52.276;9.946;2022-09-02T03:15:45;3.78;;;1.20;;
5841;SDS011;2947;52.276;9.946;2022-09-02T03:18:12;1.73;;;0.90;;
5841;SDS011;2947;52.276;9.946;2022-09-02T03:20:39;4.88;;;1.20;;
5841;SDS011;2947;52.276;9.946;2022-09-02T03:23:05;2.17;;;1.20;;
5841;SDS011;2947;52.276;9.946;2022-09-02T03:25:32;2.90;;;1.27;;
5841;SDS011;2947;52.276;9.946;2022-09-02T03:28:00;3.33;;;1.20;;
5841;SDS011;2947;52.276;9.946;2022-09-02T03:30:28;3.42;;;1.20;;
5841;SDS011;2947;52.276;9.946;2022-09-02T03:32:56;1.90;;;1.10;;
5841;SDS011;2947;52.276;9.946;2022-09-02T03:35:24;6.95;;;1.30;;
5841;SDS011;2947;52.276;9.946;2022-09-02T03:37:50;2.50;;;1.23;;
5841;SDS011;2947;52.276;9.946;2022-09-02T03:40:18;2.90;;;1.20;;
5841;SDS011;2947;52.276;9.946;2022-09-02T03:42:47;2.30;;;1.55;;
5841;SDS011;2947;52.276;9.946;2022-09-02T03:45:14;3.05;;;1.67;;
5841;SDS011;2947;52.276;9.946;2022-09-02T03:47:42;2.17;;;1.10;;
5841;SDS011;2947;52.276;9.946;2022-09-02T03:50:29;2.70;;;1.55;;
5841;SDS011;2947;52.276;9.946;2022-09-02T03:53:00;2.97;;;1.55;;
5841;SDS011;2947;52.276;9.946;2022-09-02T03:55:26;2.38;;;1.23;;
5841;SDS011;2947;52.276;9.946;2022-09-02T03:57:53;2.20;;;1.20;;
5841;SDS011;2947;52.276;9.946;2022-09-02T04:00:20;2.78;;;1.33;;
5841;SDS011;2947;52.276;9.946;2022-09-02T04:02:53;6.32;;;1.52;;
5841;SDS011;2947;52.276;9.946;2022-09-02T04:05:20;4.25;;;1.33;;
5841;SDS011;2947;52.276;9.946;2022-09-02T04:07:47;7.15;;;1.58;;
5841;SDS011;2947;52.276;9.946;2022-09-02T04:10:15;4.75;;;1.20;;
5841;SDS011;2947;52.276;9.946;2022-09-02T04:12:41;2.65;;;1.52;;
5841;SDS011;2947;52.276;9.946;2022-09-02T04:15:07;4.72;;;1.60;;
5841;SDS011;2947;52.276;9.946;2022-09-02T04:17:35;4.13;;;1.20;;
5841;SDS011;2947;52.276;9.946;2022-09-02T04:20:03;2.80;;;1.13;;
5841;SDS011;2947;52.276;9.946;2022-09-02T04:22:31;3.15;;;1.40;;
5841;SDS011;2947;52.276;9.946;2022-09-02T04:24:58;3.20;;;1.60;;
5841;SDS011;2947;52.276;9.946;2022-09-02T04:27:24;5.80;;;1.70;;
5841;SDS011;2947;52.276;9.946;2022-09-02T04:29:50;3.55;;;1.50;;
5841;SDS011;2947;52.276;9.946;2022-09-02T04:32:16;4.68;;;1.50;;
5841;SDS011;2947;52.276;9.946;2022-09-02T04:34:42;2.13;;;1.33;;
5841;SDS011;2947;52.276;9.946;2022-09-02T04:37:07;2.35;;;1.40;;
5841;SDS011;2947;52.276;9.946;2022-09-02T04:39:33;2.75;;;1.58;;
5841;SDS011;2947;52.276;9.946;2022-09-02T04:41:59;3.33;;;1.50;;
5841;SDS011;2947;52.276;9.946;2022-09-02T04:44:25;3.17;;;1.65;;
5841;SDS011;2947;52.276;9.946;2022-09-02T04:46:51;2.35;;;1.40;;
5841;SDS011;2947;52.276;9.946;2022-09-02T04:49:17;4.05;;;1.40;;
5841;SDS011;2947;52.276;9.946;2022-09-02T04:51:43;3.35;;;1.50;;
5841;SDS011;2947;52.276;9.946;2022-09-02T04:54:08;3.38;;;1.67;;
5841;SDS011;2947;52.276;9.946;2022-09-02T04:56:34;2.53;;;1.50;;
5841;SDS011;2947;52.276;9.946;2022-09-02T04:59:02;5.20;;;1.92;;
5841;SDS011;2947;52.276;9.946;2022-09-02T05:01:29;2.85;;;1.35;;
5841;SDS011;2947;52.276;9.946;2022-09-02T05:03:58;4.00;;;1.90;;
5841;SDS011;2947;52.276;9.946;2022-09-02T05:06:26;2.75;;;1.88;;
5841;SDS011;2947;52.276;9.946;2022-09-02T05:08:54;2.50;;;1.70;;
5841;SDS011;2947;52.276;9.946;2022-09-02T05:11:23;2.88;;;1.45;;
5841;SDS011;2947;52.276;9.946;2022-09-02T05:13:54;2.60;;;1.48;;
5841;SDS011;2947;52.276;9.946;2022-09-02T05:16:24;5.32;;;1.70;;
5841;SDS011;2947;52.276;9.946;2022-09-02T05:19:00;4.20;;;1.50;;
5841;SDS011;2947;52.276;9.946;2022-09-02T05:21:27;3.15;;;1.67;;
5841;SDS011;2947;52.276;9.946;2022-09-02T05:23:55;3.45;;;2.00;;
5841;SDS011;2947;52.276;9.946;2022-09-02T05:26:22;2.50;;;1.60;;
5841;SDS011;2947;52.276;9.946;2022-09-02T05:28:49;2.83;;;1.33;;
5841;SDS011;2947;52.276;9.946;2022-09-02T05:31:16;2.50;;;1.50;;
5841;SDS011;2947;52.276;9.946;2022-09-02T05:33:43;7.97;;;2.10;;
5841;SDS011;2947;52.276;9.946;2022-09-02T05:36:11;2.35;;;1.45;;
5841;SDS011;2947;52.276;9.946;2022-09-02T05:38:40;3.22;;;1.83;;
5841;SDS011;2947;52.276;9.946;2022-09-02T05:41:08;2.50;;;1.70;;
5841;SDS011;2947;52.276;9.946;2022-09-02T05:43:39;3.22;;;1.50;;
5841;SDS011;2947;52.276;9.946;2022-09-02T05:46:06;3.35;;;1.67;;
5841;SDS011;2947;52.276;9.946;2022-09-02T05:48:35;3.15;;;1.65;;
5841;SDS011;2947;52.276;9.946;2022-09-02T05:51:22;2.28;;;1.60;;
5841;SDS011;2947;52.276;9.946;2022-09-02T05:53:52;2.67;;;1.58;;
5841;SDS011;2947;52.276;9.946;2022-09-02T05:56:37;3.38;;;1.65;;
5841;SDS011;2947;52.276;9.946;2022-09-02T05:59:05;2.92;;;1.30;;
5841;SDS011;2947;52.276;9.946;2022-09-02T06:01:32;5.30;;;1.75;;
5841;SDS011;2947;52.276;9.946;2022-09-02T06:03:59;4.00;;;1.60;;
5841;SDS011;2947;52.276;9.946;2022-09-02T06:06:26;3.45;;;1.75;;
5841;SDS011;2947;52.276;9.946;2022-09-02T06:08:54;8.45;;;2.15;;
5841;SDS011;2947;52.276;9.946;2022-09-02T06:11:20;3.33;;;1.70;;
5841;SDS011;2947;52.276;9.946;2022-09-02T06:13:46;4.05;;;2.10;;
5841;SDS011;2947;52.276;9.946;2022-09-02T06:16:14;3.03;;;1.33;;
5841;SDS011;2947;52.276;9.946;2022-09-02T06:18:43;6.85;;;2.08;;
5841;SDS011;2947;52.276;9.946;2022-09-02T06:21:09;5.93;;;1.48;;
5841;SDS011;2947;52.276;9.946;2022-09-02T06:23:36;3.17;;;1.73;;
5841;SDS011;2947;52.276;9.946;2022-09-02T06:26:03;4.03;;;1.77;;
5841;SDS011;2947;52.276;9.946;2022-09-02T06:28:31;3.65;;;2.00;;
5841;SDS011;2947;52.276;9.946;2022-09-02T06:30:57;3.50;;;1.73;;
5841;SDS011;2947;52.276;9.946;2022-09-02T06:33:23;4.22;;;1.70;;
5841;SDS011;2947;52.276;9.946;2022-09-02T06:35:49;3.03;;;1.60;;
5841;SDS011;2947;52.276;9.946;2022-09-02T06:38:14;9.63;;;1.90;;
5841;SDS011;2947;52.276;9.946;2022-09-02T06:40:50;2.97;;;1.63;;
5841;SDS011;2947;52.276;9.946;2022-09-02T06:43:19;4.60;;;2.03;;
5841;SDS011;2947;52.276;9.946;2022-09-02T06:45:45;6.50;;;2.10;;
5841;SDS011;2947;52.276;9.946;2022-09-02T06:48:10;5.32;;;2.55;;
5841;SDS011;2947;52.276;9.946;2022-09-02T06:50:41;4.03;;;2.10;;
5841;SDS011;2947;52.276;9.946;2022-09-02T06:53:09;4.63;;;1.98;;
5841;SDS011;2947;52.276;9.946;2022-09-02T06:55:36;4.07;;;2.08;;
5841;SDS011;2947;52.276;9.946;2022-09-02T06:58:04;8.68;;;2.17;;
5841;SDS011;2947;52.276;9.946;2022-09-02T07:00:30;4.50;;;2.20;;
5841;SDS011;2947;52.276;9.946;2022-09-02T07:02:57;5.78;;;2.63;;
5841;SDS011;2947;52.276;9.946;2022-09-02T07:05:41;7.45;;;2.33;;
5841;SDS011;2947;52.276;9.946;2022-09-02T07:08:07;5.00;;;1.40;;
5841;SDS011;2947;52.276;9.946;2022-09-02T07:10:36;4.78;;;1.80;;
5841;SDS011;2947;52.276;9.946;2022-09-02T07:13:03;4.40;;;1.80;;
5841;SDS011;2947;52.276;9.946;2022-09-02T07:15:30;3.75;;;1.70;;
5841;SDS011;2947;52.276;9.946;2022-09-02T07:17:55;4.43;;;2.05;;
5841;SDS011;2947;52.276;9.946;2022-09-02T07:20:21;4.40;;;1.90;;
5841;SDS011;2947;52.276;9.946;2022-09-02T07:22:47;3.97;;;2.03;;
5841;SDS011;2947;52.276;9.946;2022-09-02T07:25:14;4.40;;;2.60;;
5841;SDS011;2947;52.276;9.946;2022-09-02T07:27:41;4.90;;;2.08;;
5841;SDS011;2947;52.276;9.946;2022-09-02T07:30:08;3.58;;;2.15;;
5841;SDS011;2947;52.276;9.946;2022-09-02T07:32:35;5.50;;;2.40;;
5841;SDS011;2947;52.276;9.946;2022-09-02T07:35:02;5.43;;;1.60;;
5841;SDS011;2947;52.276;9.946;2022-09-02T07:37:30;3.63;;;1.75;;
5841;SDS011;2947;52.276;9.946;2022-09-02T07:39:58;3.38;;;1.80;;
5841;SDS011;2947;52.276;9.946;2022-09-02T07:42:29;4.65;;;1.80;;
5841;SDS011;2947;52.276;9.946;2022-09-02T07:44:54;3.45;;;1.85;;
5841;SDS011;2947;52.276;9.946;2022-09-02T07:47:20;4.55;;;1.60;;
5841;SDS011;2947;52.276;9.946;2022-09-02T07:49:51;5.07;;;1.65;;
5841;SDS011;2947;52.276;9.946;2022-09-02T07:52:17;3.40;;;1.77;;
5841;SDS011;2947;52.276;9.946;2022-09-02T07:54:42;3.22;;;1.67;;
5841;SDS011;2947;52.276;9.946;2022-09-02T07:57:09;4.68;;;2.05;;
5841;SDS011;2947;52.276;9.946;2022-09-02T07:59:35;7.05;;;2.20;;
5841;SDS011;2947;52.276;9.946;2022-09-02T08:02:01;5.05;;;1.65;;
5841;SDS011;2947;52.276;9.946;2022-09-02T08:04:26;5.80;;;1.92;;
5841;SDS011;2947;52.276;9.946;2022-09-02T08:06:52;2.90;;;1.35;;
5841;SDS011;2947;52.276;9.946;2022-09-02T08:09:19;3.35;;;1.60;;
5841;SDS011;2947;52.276;9.946;2022-09-02T08:11:46;4.28;;;1.80;;
5841;SDS011;2947;52.276;9.946;2022-09-02T08:14:15;3.80;;;1.70;;
5841;SDS011;2947;52.276;9.946;2022-09-02T08:16:48;3.78;;;1.15;;
5841;SDS011;2947;52.276;9.946;2022-09-02T08:19:14;2.30;;;1.27;;
5841;SDS011;2947;52.276;9.946;2022-09-02T08:21:40;5.30;;;1.75;;
5841;SDS011;2947;52.276;9.946;2022-09-02T08:24:06;5.85;;;1.88;;
5841;SDS011;2947;52.276;9.946;2022-09-02T08:26:32;2.80;;;1.45;;
5841;SDS011;2947;52.276;9.946;2022-09-02T08:29:01;2.78;;;1.40;;
5841;SDS011;2947;52.276;9.946;2022-09-02T08:31:28;4.15;;;1.17;;
5841;SDS011;2947;52.276;9.946;2022-09-02T08:33:56;6.88;;;1.30;;
5841;SDS011;2947;52.276;9.946;2022-09-02T08:36:23;3.42;;;1.48;;
5841;SDS011;2947;52.276;9.946;2022-09-02T08:38:49;3.33;;;1.50;;
5841;SDS011;2947;52.276;9.946;2022-09-02T08:41:26;5.28;;;2.40;;
5841;SDS011;2947;52.276;9.946;2022-09-02T08:44:21;5.97;;;1.77;;
5841;SDS011;2947;52.276;9.946;2022-09-02T08:46:52;5.35;;;1.42;;
5841;SDS011;2947;52.276;9.946;2022-09-02T08:49:28;5.97;;;1.80;;
5841;SDS011;2947;52.276;9.946;2022-09-02T08:52:03;4.22;;;1.40;;
5841;SDS011;2947;52.276;9.946;2022-09-02T08:54:30;5.18;;;1.60;;
5841;SDS011;2947;52.276;9.946;2022-09-02T08:57:10;3.72;;;1.48;;
5841;SDS011;2947;52.276;9.946;2022-09-02T08:59:36;3.17;;;1.70;;
5841;SDS011;2947;52.276;9.946;2022-09-02T09:21:40;2.70;;;1.17;;
5841;SDS011;2947;52.276;9.946;2022-09-02T09:24:20;7.45;;;1.58;;
5841;SDS011;2947;52.276;9.946;2022-09-02T09:26:51;5.22;;;1.50;;
5841;SDS011;2947;52.276;9.946;2022-09-02T09:29:18;5.03;;;1.50;;
5841;SDS011;2947;52.276;9.946;2022-09-02T09:31:49;2.47;;;0.88;;
5841;SDS011;2947;52.276;9.946;2022-09-02T09:34:23;3.10;;;1.10;;
5841;SDS011;2947;52.276;9.946;2022-09-02T09:36:52;3.40;;;1.23;;
5841;SDS011;2947;52.276;9.946;2022-09-02T09:41:57;5.07;;;1.40;;
5841;SDS011;2947;52.276;9.946;2022-09-02T09:44:37;3.47;;;1.23;;
5841;SDS011;2947;52.276;9.946;2022-09-02T09:47:15;5.00;;;1.23;;
5841;SDS011;2947;52.276;9.946;2022-09-02T09:49:50;7.75;;;1.77;;
5841;SDS011;2947;52.276;9.946;2022-09-02T09:52:22;3.03;;;1.38;;
5841;SDS011;2947;52.276;9.946;2022-09-02T09:55:13;3.72;;;1.10;;
5841;SDS011;2947;52.276;9.946;2022-09-02T09:57:44;5.68;;;1.42;;
5841;SDS011;2947;52.276;9.946;2022-09-02T10:00:19;4.03;;;1.30;;
5841;SDS011;2947;52.276;9.946;2022-09-02T10:02:53;2.88;;;1.00;;
5841;SDS011;2947;52.276;9.946;2022-09-02T10:08:00;3.05;;;1.00;;
5841;SDS011;2947;52.276;9.946;2022-09-02T10:10:30;2.47;;;1.02;;
5841;SDS011;2947;52.276;9.946;2022-09-02T10:13:14;5.28;;;1.70;;
5841;SDS011;2947;52.276;9.946;2022-09-02T10:19:01;6.22;;;1.02;;
5841;SDS011;2947;52.276;9.946;2022-09-02T10:24:45;4.85;;;1.30;;
5841;SDS011;2947;52.276;9.946;2022-09-02T10:27:25;2.85;;;1.08;;
5841;SDS011;2947;52.276;9.946;2022-09-02T10:30:07;2.00;;;0.90;;
5841;SDS011;2947;52.276;9.946;2022-09-02T10:32:46;3.00;;;1.20;;
5841;SDS011;2947;52.276;9.946;2022-09-02T10:58:20;3.33;;;1.20;;
5841;SDS011;2947;52.276;9.946;2022-09-02T11:01:17;2.15;;;0.95;;
5841;SDS011;2947;52.276;9.946;2022-09-02T11:06:25;3.92;;;1.50;;
5841;SDS011;2947;52.276;9.946;2022-09-02T11:08:56;4.25;;;1.38;;
5841;SDS011;2947;52.276;9.946;2022-09-02T11:11:39;9.15;;;1.20;;
5841;SDS011;2947;52.276;9.946;2022-09-02T11:14:16;2.75;;;1.40;;
5841;SDS011;2947;52.276;9.946;2022-09-02T11:17:09;4.60;;;1.40;;
5841;SDS011;2947;52.276;9.946;2022-09-02T11:19:56;2.67;;;1.10;;
5841;SDS011;2947;52.276;9.946;2022-09-02T11:22:51;3.05;;;0.85;;
5841;SDS011;2947;52.276;9.946;2022-09-02T11:25:32;4.57;;;1.05;;
5841;SDS011;2947;52.276;9.946;2022-09-02T11:28:25;11.07;;;1.05;;
5841;SDS011;2947;52.276;9.946;2022-09-02T11:31:15;6.05;;;1.30;;
5841;SDS011;2947;52.276;9.946;2022-09-02T11:36:29;4.95;;;1.20;;
5841;SDS011;2947;52.276;9.946;2022-09-02T11:39:00;4.05;;;0.90;;
5841;SDS011;2947;52.276;9.946;2022-09-02T11:47:41;5.13;;;1.70;;
5841;SDS011;2947;52.276;9.946;2022-09-02T11:53:24;2.95;;;0.93;;
5841;SDS011;2947;52.276;9.946;2022-09-02T11:56:14;2.10;;;0.88;;
5841;SDS011;2947;52.276;9.946;2022-09-02T11:58:48;8.38;;;0.93;;
5841;SDS011;2947;52.276;9.946;2022-09-02T12:04:03;3.00;;;1.00;;
5841;SDS011;2947;52.276;9.946;2022-09-02T12:09:50;4.38;;;1.20;;
5841;SDS011;2947;52.276;9.946;2022-09-02T12:13:00;2.38;;;0.90;;
5841;SDS011;2947;52.276;9.946;2022-09-02T12:15:14;4.15;;;1.30;;
5841;SDS011;2947;52.276;9.946;2022-09-02T12:23:08;3.47;;;1.52;;
5841;SDS011;2947;52.276;9.946;2022-09-02T12:26:12;6.05;;;1.02;;
5841;SDS011;2947;52.276;9.946;2022-09-02T12:28:40;2.95;;;0.95;;
5841;SDS011;2947;52.276;9.946;2022-09-02T12:31:11;2.75;;;1.10;;
5841;SDS011;2947;52.276;9.946;2022-09-02T12:34:00;6.28;;;1.25;;
5841;SDS011;2947;52.276;9.946;2022-09-02T12:48:29;6.55;;;1.45;;
5841;SDS011;2947;52.276;9.946;2022-09-02T12:50:54;2.60;;;1.20;;
5841;SDS011;2947;52.276;9.946;2022-09-02T12:56:22;3.25;;;1.58;;
5841;SDS011;2947;52.276;9.946;2022-09-02T12:58:55;4.78;;;1.10;;
5841;SDS011;2947;52.276;9.946;2022-09-02T13:10:36;4.32;;;0.90;;
5841;SDS011;2947;52.276;9.946;2022-09-02T13:22:10;3.08;;;0.98;;
5841;SDS011;2947;52.276;9.946;2022-09-02T13:25:04;3.10;;;1.23;;
5841;SDS011;2947;52.276;9.946;2022-09-02T13:33:28;9.50;;;1.35;;
5841;SDS011;2947;52.276;9.946;2022-09-02T13:35:55;5.28;;;1.25;;
5841;SDS011;2947;52.276;9.946;2022-09-02T13:38:26;3.03;;;0.70;;
5841;SDS011;2947;52.276;9.946;2022-09-02T13:40:53;2.28;;;0.90;;
5841;SDS011;2947;52.276;9.946;2022-09-02T13:43:20;2.17;;;0.80;;
5841;SDS011;2947;52.276;9.946;2022-09-02T13:45:49;5.13;;;0.90;;
5841;SDS011;2947;52.276;9.946;2022-09-02T13:48:20;2.58;;;0.80;;
5841;SDS011;2947;52.276;9.946;2022-09-02T13:50:51;3.25;;;1.20;;
5841;SDS011;2947;52.276;9.946;2022-09-02T13:53:39;2.67;;;1.10;;
5841;SDS011;2947;52.276;9.946;2022-09-02T13:56:09;3.53;;;1.13;;
5841;SDS011;2947;52.276;9.946;2022-09-02T13:58:38;3.95;;;1.08;;
5841;SDS011;2947;52.276;9.946;2022-09-02T14:01:15;2.13;;;0.88;;
5841;SDS011;2947;52.276;9.946;2022-09-02T14:04:01;1.73;;;0.70;;
5841;SDS011;2947;52.276;9.946;2022-09-02T14:06:37;2.13;;;1.10;;
5841;SDS011;2947;52.276;9.946;2022-09-02T14:09:07;3.72;;;1.08;;
5841;SDS011;2947;52.276;9.946;2022-09-02T14:11:49;4.38;;;1.27;;
5841;SDS011;2947;52.276;9.946;2022-09-02T14:14:18;2.72;;;0.80;;
5841;SDS011;2947;52.276;9.946;2022-09-02T14:16:47;3.47;;;1.08;;
5841;SDS011;2947;52.276;9.946;2022-09-02T14:21:58;3.45;;;0.93;;
5841;SDS011;2947;52.276;9.946;2022-09-02T14:24:28;3.15;;;0.90;;
5841;SDS011;2947;52.276;9.946;2022-09-02T14:27:01;3.38;;;1.00;;
5841;SDS011;2947;52.276;9.946;2022-09-02T14:29:28;14.60;;;1.30;;
5841;SDS011;2947;52.276;9.946;2022-09-02T14:34:40;12.32;;;1.20;;
5841;SDS011;2947;52.276;9.946;2022-09-02T14:40:07;2.20;;;1.10;;
5841;SDS011;2947;52.276;9.946;2022-09-02T14:42:48;2.95;;;1.27;;
5841;SDS011;2947;52.276;9.946;2022-09-02T14:45:26;9.63;;;1.13;;
5841;SDS011;2947;52.276;9.946;2022-09-02T14:47:58;2.38;;;1.13;;
5841;SDS011;2947;52.276;9.946;2022-09-02T14:50:33;5.95;;;1.17;;
5841;SDS011;2947;52.276;9.946;2022-09-02T14:53:02;1.70;;;0.73;;
5841;SDS011;2947;52.276;9.946;2022-09-02T14:55:51;2.15;;;0.88;;
5841;SDS011;2947;52.276;9.946;2022-09-02T14:58:21;2.40;;;1.10;;
5841;SDS011;2947;52.276;9.946;2022-09-02T15:00:50;2.00;;;0.75;;
5841;SDS011;2947;52.276;9.946;2022-09-02T15:03:22;3.65;;;0.75;;
5841;SDS011;2947;52.276;9.946;2022-09-02T15:05:49;6.68;;;0.98;;
5841;SDS011;2947;52.276;9.946;2022-09-02T15:08:16;4.80;;;1.50;;
5841;SDS011;2947;52.276;9.946;2022-09-02T15:10:42;3.70;;;1.30;;
5841;SDS011;2947;52.276;9.946;2022-09-02T15:13:10;7.22;;;1.00;;
5841;SDS011;2947;52.276;9.946;2022-09-02T15:15:39;5.18;;;0.88;;
5841;SDS011;2947;52.276;9.946;2022-09-02T15:18:05;4.45;;;1.00;;
5841;SDS011;2947;52.276;9.946;2022-09-02T15:20:31;3.72;;;0.90;;
5841;SDS011;2947;52.276;9.946;2022-09-02T15:22:58;4.20;;;0.90;;
5841;SDS011;2947;52.276;9.946;2022-09-02T15:25:24;3.67;;;0.80;;
5841;SDS011;2947;52.276;9.946;2022-09-02T15:27:50;3.22;;;1.13;;
5841;SDS011;2947;52.276;9.946;2022-09-02T15:30:16;3.05;;;1.10;;
5841;SDS011;2947;52.276;9.946;2022-09-02T15:32:41;3.58;;;0.93;;
5841;SDS011;2947;52.276;9.946;2022-09-02T15:35:09;4.03;;;1.02;;
5841;SDS011;2947;52.276;9.946;2022-09-02T15:37:35;3.75;;;1.23;;
5841;SDS011;2947;52.276;9.946;2022-09-02T15:40:02;7.35;;;1.08;;
5841;SDS011;2947;52.276;9.946;2022-09-02T15:42:34;2.80;;;0.88;;
5841;SDS011;2947;52.276;9.946;2022-09-02T15:45:02;5.80;;;0.82;;
5841;SDS011;2947;52.276;9.946;2022-09-02T15:47:35;2.38;;;0.90;;
5841;SDS011;2947;52.276;9.946;2022-09-02T15:50:05;6.82;;;1.02;;
5841;SDS011;2947;52.276;9.946;2022-09-02T15:52:33;9.45;;;1.30;;
5841;SDS011;2947;52.276;9.946;2022-09-02T15:54:59;2.60;;;0.80;;
5841;SDS011;2947;52.276;9.946;2022-09-02T15:57:25;2.63;;;0.80;;
5841;SDS011;2947;52.276;9.946;2022-09-02T15:59:51;5.28;;;0.80;;
5841;SDS011;2947;52.276;9.946;2022-09-02T16:02:18;2.03;;;0.70;;
5841;SDS011;2947;52.276;9.946;2022-09-02T16:04:43;4.47;;;0.90;;
5841;SDS011;2947;52.276;9.946;2022-09-02T16:07:09;3.05;;;0.88;;
5841;SDS011;2947;52.276;9.946;2022-09-02T16:09:35;3.85;;;0.80;;
5841;SDS011;2947;52.276;9.946;2022-09-02T16:12:01;5.78;;;1.10;;
5841;SDS011;2947;52.276;9.946;2022-09-02T16:14:27;5.70;;;1.02;;
5841;SDS011;2947;52.276;9.946;2022-09-02T16:16:53;5.40;;;0.85;;
5841;SDS011;2947;52.276;9.946;2022-09-02T16:19:20;2.17;;;0.95;;
5841;SDS011;2947;52.276;9.946;2022-09-02T16:21:49;3.47;;;1.63;;
5841;SDS011;2947;52.276;9.946;2022-09-02T16:24:15;4.85;;;0.98;;
5841;SDS011;2947;52.276;9.946;2022-09-02T16:26:44;5.78;;;0.85;;
5841;SDS011;2947;52.276;9.946;2022-09-02T16:29:11;4.07;;;0.85;;
5841;SDS011;2947;52.276;9.946;2022-09-02T16:31:39;1.65;;;0.60;;
5841;SDS011;2947;52.276;9.946;2022-09-02T16:34:08;2.15;;;0.80;;
5841;SDS011;2947;52.276;9.946;2022-09-02T16:36:37;8.95;;;0.88;;
5841;SDS011;2947;52.276;9.946;2022-09-02T16:39:06;3.28;;;0.88;;
5841;SDS011;2947;52.276;9.946;2022-09-02T16:41:33;2.60;;;0.80;;
5841;SDS011;2947;52.276;9.946;2022-09-02T16:44:07;3.63;;;1.00;;
5841;SDS011;2947;52.276;9.946;2022-09-02T16:46:36;3.45;;;0.80;;
5841;SDS011;2947;52.276;9.946;2022-09-02T16:49:05;3.22;;;0.65;;
5841;SDS011;2947;52.276;9.946;2022-09-02T16:51:33;4.90;;;1.30;;
5841;SDS011;2947;52.276;9.946;2022-09-02T16:54:00;3.00;;;1.02;;
5841;SDS011;2947;52.276;9.946;2022-09-02T16:56:28;2.58;;;0.82;;
5841;SDS011;2947;52.276;9.946;2022-09-02T16:58:55;6.22;;;1.08;;
5841;SDS011;2947;52.276;9.946;2022-09-02T17:01:26;2.75;;;1.02;;
5841;SDS011;2947;52.276;9.946;2022-09-02T17:03:52;8.27;;;1.10;;
5841;SDS011;2947;52.276;9.946;2022-09-02T17:06:18;4.85;;;1.02;;
5841;SDS011;2947;52.276;9.946;2022-09-02T17:08:43;2.45;;;0.90;;
5841;SDS011;2947;52.276;9.946;2022-09-02T17:11:20;3.72;;;0.90;;
5841;SDS011;2947;52.276;9.946;2022-09-02T17:13:55;3.15;;;0.80;;
5841;SDS011;2947;52.276;9.946;2022-09-02T17:16:30;3.05;;;0.70;;
5841;SDS011;2947;52.276;9.946;2022-09-02T17:18:59;1.60;;;0.55;;
5841;SDS011;2947;52.276;9.946;2022-09-02T17:21:29;6.15;;;0.80;;
5841;SDS011;2947;52.276;9.946;2022-09-02T17:23:58;2.00;;;0.98;;
5841;SDS011;2947;52.276;9.946;2022-09-02T17:26:25;2.25;;;0.82;;
5841;SDS011;2947;52.276;9.946;2022-09-02T17:28:53;2.05;;;0.80;;
5841;SDS011;2947;52.276;9.946;2022-09-02T17:33:54;2.35;;;0.90;;
5841;SDS011;2947;52.276;9.946;2022-09-02T17:36:23;3.17;;;0.82;;
5841;SDS011;2947;52.276;9.946;2022-09-02T17:38:56;2.95;;;0.63;;
5841;SDS011;2947;52.276;9.946;2022-09-02T17:41:24;5.93;;;0.77;;